Time;durP1;ratioP1;P1;durP2;ratioP2;P2;SDS_P1;SDS_P2;PMS_P1;PMS_P2;Temp;Humidity;BMP_temperature;BMP_pressure;BME280_temperature;BME280_humidity;BME280_pressure;Samples;Min_cycle;Max_cycle;Signal;HPM_P1;HPM_P2
2023/01/18 00:01:48;;;;;;;0.00;0.00;;;;;;;3.41;70.18;98898.72;7360233;19;20021;-53
2023/01/18 00:04:14;;;;;;;0.00;0.00;;;;;;;3.46;69.67;98914.94;7360600;19;20006;-50
2023/01/18 00:06:40;;;;;;;0.00;0.00;;;;;;;3.47;70.06;98922.66;7357875;19;20021;-56
2023/01/18 00:09:05;;;;;;;0.10;0.10;;;;;;;3.47;69.80;98926.97;7357322;19;20019;-55
2023/01/18 00:11:31;;;;;;;0.10;0.10;;;;;;;3.32;69.87;98899.78;7357224;19;20093;-57
2023/01/18 00:13:56;;;;;;;0.00;0.00;;;;;;;3.48;70.31;98918.34;7360218;19;20026;-55
2023/01/18 00:16:22;;;;;;;0.00;0.00;;;;;;;3.48;69.91;98919.19;7356630;19;20003;-55
2023/01/18 00:18:53;;;;;;;0.10;0.10;;;;;;;3.51;69.91;98907.97;7353902;19;20010;-56
2023/01/18 00:21:19;;;;;;;0.05;0.05;;;;;;;3.50;70.14;98906.25;7352392;19;20018;-56
2023/01/18 00:23:44;;;;;;;0.00;0.00;;;;;;;3.50;69.98;98914.00;7351671;19;20734;-55
2023/01/18 00:26:11;;;;;;;0.00;0.00;;;;;;;3.48;69.51;98905.44;7349672;19;20011;-56
2023/01/18 00:28:37;;;;;;;0.10;0.10;;;;;;;3.46;69.90;98922.69;7350721;19;20033;-52
2023/01/18 00:31:18;;;;;;;0.08;0.08;;;;;;;3.44;69.82;98916.69;7348030;19;20038;-53
2023/01/18 00:33:45;;;;;;;0.00;0.00;;;;;;;3.41;69.92;98914.22;7353629;19;20017;-56
2023/01/18 00:36:12;;;;;;;0.10;0.10;;;;;;;3.37;69.79;98919.41;7353455;19;20010;-53
2023/01/18 00:38:38;;;;;;;0.00;0.00;;;;;;;3.36;69.93;98924.63;7357918;19;20010;-55
2023/01/18 00:41:03;;;;;;;0.00;0.00;;;;;;;3.22;69.48;98911.19;7358522;19;20084;-55
2023/01/18 00:43:38;;;;;;;0.10;0.10;;;;;;;3.30;70.22;98925.63;7355181;19;20020;-55
2023/01/18 00:46:14;;;;;;;0.10;0.10;;;;;;;3.29;69.94;98926.47;7357156;19;20025;-56
2023/01/18 00:48:41;;;;;;;0.10;0.10;;;;;;;3.30;70.29;98920.44;7359347;19;20874;-53
2023/01/18 00:51:08;;;;;;;0.00;0.00;;;;;;;3.27;70.12;98907.59;7353663;19;20024;-53
2023/01/18 00:53:34;;;;;;;0.10;0.10;;;;;;;3.29;70.19;98913.56;7352567;19;20018;-55
2023/01/18 00:56:00;;;;;;;0.00;0.00;;;;;;;3.27;70.13;98920.50;7357658;19;20033;-56
2023/01/18 00:58:27;;;;;;;0.10;0.10;;;;;;;3.25;70.33;98917.13;7356346;19;20022;-56
2023/01/18 01:00:52;;;;;;;0.10;0.10;;;;;;;3.24;70.24;98905.09;7356198;19;20007;-54
2023/01/18 01:03:19;;;;;;;0.10;0.10;;;;;;;3.22;69.98;98901.69;7358407;19;20013;-52
2023/01/18 01:08:28;;;;;;;0.00;0.00;;;;;;;3.18;70.02;98912.97;7358022;19;20017;-54
2023/01/18 01:11:07;;;;;;;0.00;0.00;;;;;;;3.15;70.23;98914.78;7355921;19;20011;-55
2023/01/18 01:27:13;;;;;;;0.00;0.00;;;;;;;2.92;70.58;98934.13;7358052;19;20023;-53
2023/01/18 01:29:39;;;;;;;0.00;0.00;;;;;;;2.99;70.63;98946.03;7354565;19;20161;-54
2023/01/18 01:32:05;;;;;;;0.00;0.00;;;;;;;2.86;70.40;98922.22;7357360;19;20011;-53
2023/01/18 01:34:30;;;;;;;0.00;0.00;;;;;;;2.99;70.58;98950.31;7351412;19;20019;-55
2023/01/18 01:36:56;;;;;;;0.00;0.00;;;;;;;2.96;70.54;98955.56;7357901;19;20014;-55
2023/01/18 01:39:22;;;;;;;0.10;0.10;;;;;;;2.95;70.61;98964.19;7355943;19;20999;-55
2023/01/18 01:41:47;;;;;;;0.10;0.10;;;;;;;2.94;70.56;98962.44;7355768;19;20017;-55
2023/01/18 01:44:19;;;;;;;0.00;0.00;;;;;;;2.95;70.63;98959.03;7354473;19;20542;-53
2023/01/18 01:46:44;;;;;;;0.00;0.00;;;;;;;2.93;70.37;98960.75;7354596;19;20711;-55
2023/01/18 01:49:14;;;;;;;0.10;0.10;;;;;;;2.93;70.58;98960.75;7352037;19;20017;-55
2023/01/18 01:51:50;;;;;;;0.00;0.00;;;;;;;2.90;70.39;98950.53;7355721;19;20021;-54
2023/01/18 01:54:25;;;;;;;0.10;0.10;;;;;;;2.84;70.47;98957.50;7356197;19;20013;-53
2023/01/18 01:56:55;;;;;;;0.03;0.03;;;;;;;2.88;70.32;98965.16;7354085;19;20022;-55
2023/01/18 01:59:22;;;;;;;0.00;0.00;;;;;;;2.86;70.48;98976.34;7353875;19;20791;-56
2023/01/18 02:01:48;;;;;;;0.10;0.10;;;;;;;2.84;70.63;98983.28;7354091;19;20053;-57
2023/01/18 02:04:13;;;;;;;0.05;0.05;;;;;;;2.82;70.69;98997.91;7357639;19;20014;-52
2023/01/18 02:06:39;;;;;;;0.10;0.10;;;;;;;2.71;70.78;98984.38;7360445;19;20046;-53
2023/01/18 02:09:11;;;;;;;0.10;0.10;;;;;;;2.82;70.93;99002.22;7362164;19;20010;-54
2023/01/18 02:11:38;;;;;;;0.10;0.10;;;;;;;2.79;70.95;99010.88;7360375;19;20017;-54
2023/01/18 02:14:09;;;;;;;0.00;0.00;;;;;;;2.78;70.67;99014.31;7362062;19;20014;-53
2023/01/18 02:17:12;;;;;;;0.10;0.10;;;;;;;2.79;70.68;99021.19;7358471;19;20649;-54
2023/01/18 02:20:00;;;;;;;0.00;0.00;;;;;;;2.79;70.95;99018.59;7255061;19;2004142;-55
2023/01/18 02:22:34;;;;;;;0.00;0.00;;;;;;;2.79;70.84;99021.19;7360984;19;20029;-56
2023/01/18 02:25:38;;;;;;;0.00;0.00;;;;;;;2.79;70.63;99038.38;7362397;19;20014;-55
2023/01/18 02:28:20;;;;;;;0.10;0.10;;;;;;;2.78;70.57;99039.22;7259824;19;2004057;-53
2023/01/18 02:30:57;;;;;;;0.00;0.00;;;;;;;2.76;70.82;99052.16;7361479;19;20027;-56
2023/01/18 02:33:40;;;;;;;0.03;0.03;;;;;;;2.74;70.63;99032.47;7361827;19;20122;-56
2023/01/18 02:36:05;;;;;;;0.10;0.10;;;;;;;2.77;70.80;99027.22;7358152;19;20038;-53
2023/01/18 02:38:44;;;;;;;0.00;0.00;;;;;;;2.78;70.56;99039.22;7361176;19;20014;-55
2023/01/18 02:41:22;;;;;;;0.10;0.10;;;;;;;2.77;71.18;99033.22;7354583;19;20003;-56
2023/01/18 02:46:39;;;;;;;0.00;0.00;;;;;;;2.74;71.15;99038.47;7364749;19;20663;-56
2023/01/18 02:49:10;;;;;;;0.10;0.10;;;;;;;2.75;70.95;99047.88;7357034;19;20019;-53
2023/01/18 02:51:37;;;;;;;0.10;0.10;;;;;;;2.73;70.88;99057.34;7361248;19;20002;-51
2023/01/18 02:54:08;;;;;;;0.00;0.00;;;;;;;2.74;71.13;99074.53;7360237;19;20026;-55
2023/01/18 02:56:41;;;;;;;0.00;0.00;;;;;;;2.74;70.75;99064.22;7360268;19;20853;-56
2023/01/18 02:59:07;;;;;;;0.10;0.10;;;;;;;2.72;71.18;99060.81;7354234;19;20021;-57
2023/01/18 03:01:42;;;;;;;0.00;0.00;;;;;;;2.73;71.08;99064.25;7360339;19;20014;-56
2023/01/18 03:04:20;;;;;;;0.10;0.10;;;;;;;2.72;71.13;99060.81;7359772;19;20021;-54
2023/01/18 03:06:50;;;;;;;0.00;0.00;;;;;;;2.71;71.18;99058.28;7358847;19;20042;-52
2023/01/18 03:09:17;;;;;;;0.05;0.05;;;;;;;2.71;71.25;99073.75;7357013;19;20574;-54
2023/01/18 03:12:00;;;;;;;0.10;0.10;;;;;;;2.71;71.21;99053.97;7362395;19;20029;-55
2023/01/18 03:15:01;;;;;;;0.10;0.10;;;;;;;2.70;70.72;99062.56;7360200;19;20006;-55
2023/01/18 03:17:52;;;;;;;0.00;0.00;;;;;;;2.70;71.25;99057.44;7260724;19;2004268;-56
2023/01/18 03:20:24;;;;;;;0.00;0.00;;;;;;;2.61;70.79;99047.28;7361320;19;20510;-53
2023/01/18 03:23:41;;;;;;;0.00;0.00;;;;;;;2.67;70.64;99062.63;7361536;19;20034;-57
2023/01/18 03:26:05;;;;;;;0.00;0.00;;;;;;;2.65;71.10;99069.53;7258677;19;2004182;-53
2023/01/18 03:34:31;;;;;;;0.00;0.00;;;;;;;2.62;70.87;99087.63;7360601;19;20022;-53
2023/01/18 03:37:01;;;;;;;0.00;0.00;;;;;;;2.61;71.03;99096.22;7360178;19;20047;-56
2023/01/18 03:39:33;;;;;;;0.00;0.00;;;;;;;2.60;71.20;99091.97;7362618;19;20719;-54
2023/01/18 03:42:19;;;;;;;0.00;0.00;;;;;;;2.62;71.00;99095.34;7359056;19;20006;-51
2023/01/18 03:45:12;;;;;;;0.05;0.05;;;;;;;2.63;71.16;99097.03;7360557;19;20014;-54
2023/01/18 03:47:38;;;;;;;0.05;0.05;;;;;;;2.60;71.34;99091.97;7259559;19;2004432;-52
2023/01/18 03:50:04;;;;;;;0.10;0.10;;;;;;;2.61;71.22;99093.66;7356495;19;20046;-56
2023/01/18 03:52:37;;;;;;;0.10;0.10;;;;;;;2.57;71.21;99092.84;7363159;19;20023;-51
2023/01/18 03:55:03;;;;;;;0.10;0.10;;;;;;;2.61;71.37;99098.81;7359805;19;20026;-55
2023/01/18 03:57:41;;;;;;;0.00;0.00;;;;;;;2.57;71.22;99089.41;7362951;19;20807;-55
2023/01/18 04:00:09;;;;;;;0.10;0.10;;;;;;;2.62;71.61;99115.97;7361555;19;20010;-56
2023/01/18 04:02:35;;;;;;;;;;;;;;;2.63;71.44;99117.66;7364049;19;20549;-55
2023/01/18 04:05:02;;;;;;;0.10;0.10;;;;;;;2.60;71.10;99107.41;7340045;19;20292;-53
2023/01/18 04:07:30;;;;;;;0.00;0.00;;;;;;;2.62;71.42;99126.28;7357272;19;20378;-55
2023/01/18 04:09:56;;;;;;;0.00;0.00;;;;;;;2.48;71.30;99099.88;7354692;19;20014;-53
2023/01/18 04:12:21;;;;;;;0.10;0.10;;;;;;;2.59;71.64;99128.91;7358831;19;20014;-55
2023/01/18 04:14:47;;;;;;;0.10;0.10;;;;;;;2.58;71.71;99130.63;7355751;19;20002;-55
2023/01/18 04:17:12;;;;;;;0.00;0.00;;;;;;;2.58;71.84;99137.50;7354352;19;20043;-55
2023/01/18 04:19:39;;;;;;;0.10;0.10;;;;;;;2.59;71.49;99131.50;7358941;19;20685;-55
2023/01/18 04:22:05;;;;;;;0.00;0.00;;;;;;;2.58;71.42;99134.91;7342101;19;20462;-55
2023/01/18 04:24:30;;;;;;;0.00;0.00;;;;;;;2.57;71.59;99133.22;7353000;19;20048;-52
2023/01/18 04:26:56;;;;;;;0.00;0.00;;;;;;;2.58;71.71;99140.06;7358603;19;20021;-55
2023/01/18 04:29:21;;;;;;;0.10;0.10;;;;;;;2.56;71.94;99131.53;7357976;19;20121;-55
2023/01/18 04:31:47;;;;;;;0.05;0.05;;;;;;;2.61;71.99;99140.03;7359447;19;20771;-56
2023/01/18 04:34:13;;;;;;;0.10;0.10;;;;;;;2.64;71.53;99159.78;7357673;19;20608;-57
2023/01/18 04:36:38;;;;;;;0.10;0.10;;;;;;;2.64;71.90;99160.63;7354916;19;20151;-53
2023/01/18 04:39:04;;;;;;;0.10;0.10;;;;;;;2.64;71.82;99155.47;7358326;19;20011;-54
2023/01/18 04:41:29;;;;;;;0.00;0.00;;;;;;;2.66;72.10;99158.84;7356873;19;20649;-54
2023/01/18 04:43:55;;;;;;;0.03;0.03;;;;;;;2.68;72.28;99151.09;7360918;19;20014;-56
2023/01/18 04:46:20;;;;;;;0.10;0.10;;;;;;;2.69;72.23;99152.81;7356691;19;20014;-55
2023/01/18 04:48:50;;;;;;;0.00;0.00;;;;;;;2.73;72.07;99159.59;7357226;19;20014;-54
2023/01/18 04:51:17;;;;;;;0.03;0.03;;;;;;;2.74;72.07;99151.03;7355788;19;20115;-54
2023/01/18 04:53:43;;;;;;;0.10;0.10;;;;;;;2.76;72.28;99155.25;7358157;19;20031;-56
2023/01/18 04:56:09;;;;;;;0.00;0.00;;;;;;;2.79;72.19;99157.81;7356803;19;20042;-57
2023/01/18 04:58:35;;;;;;;0.05;0.05;;;;;;;2.78;72.07;99161.22;7356124;19;20011;-54
2023/01/18 05:01:02;;;;;;;0.10;0.10;;;;;;;2.82;71.88;99152.56;7359944;19;20047;-54
2023/01/18 05:03:27;;;;;;;0.00;0.00;;;;;;;2.85;72.12;99149.13;7352202;19;20014;-54
2023/01/18 05:05:53;;;;;;;0.08;0.08;;;;;;;2.86;71.85;99154.25;7353270;19;20018;-54
2023/01/18 05:08:19;;;;;;;0.00;0.00;;;;;;;2.86;71.78;99155.97;7357471;19;20054;-54
2023/01/18 05:10:44;;;;;;;0.10;0.10;;;;;;;2.89;71.70;99165.34;7341924;19;20020;-54
2023/01/18 05:13:09;;;;;;;0.00;0.00;;;;;;;2.90;71.56;99162.78;7358808;19;20106;-54
2023/01/18 05:15:35;;;;;;;0.00;0.00;;;;;;;2.89;71.86;99161.09;7356374;19;21054;-54
2023/01/18 05:18:01;;;;;;;0.10;0.10;;;;;;;2.88;71.86;99171.41;7359767;19;20010;-56
2023/01/18 05:20:26;;;;;;;0.05;0.05;;;;;;;2.87;71.73;99178.28;7360304;19;20465;-52
2023/01/18 05:22:52;;;;;;;0.10;0.10;;;;;;;2.88;71.74;99179.97;7356995;19;20102;-53
2023/01/18 05:25:17;;;;;;;0.00;0.00;;;;;;;2.84;71.92;99186.09;7360017;19;20356;-54
2023/01/18 05:27:43;;;;;;;0.00;0.00;;;;;;;2.86;71.56;99192.91;7358623;19;20346;-55
2023/01/18 05:30:10;;;;;;;0.10;0.10;;;;;;;2.85;71.53;99191.22;7360333;19;21069;-56
2023/01/18 05:32:35;;;;;;;0.00;0.00;;;;;;;2.89;71.77;99211.78;7357872;19;20763;-56
2023/01/18 05:35:02;;;;;;;0.00;0.00;;;;;;;2.90;72.06;99218.66;7356357;19;20014;-56
2023/01/18 05:37:28;;;;;;;0.00;0.00;;;;;;;2.91;71.75;99220.34;7360337;19;20027;-54
2023/01/18 05:39:53;;;;;;;0.00;0.00;;;;;;;2.91;72.12;99207.47;7356556;19;20006;-56
2023/01/18 05:42:19;;;;;;;0.10;0.10;;;;;;;2.93;72.00;99210.84;7355410;19;22653;-56
2023/01/18 05:44:44;;;;;;;0.00;0.00;;;;;;;2.94;71.86;99212.53;7359713;19;20010;-56
2023/01/18 05:47:09;;;;;;;0.10;0.10;;;;;;;2.95;72.00;99222.00;7357412;19;20018;-55
2023/01/18 05:49:35;;;;;;;0.00;0.00;;;;;;;2.95;71.88;99211.69;7359028;19;20101;-55
2023/01/18 05:52:00;;;;;;;0.00;0.00;;;;;;;2.96;71.86;99209.09;7358439;19;20009;-55
2023/01/18 05:54:25;;;;;;;0.00;0.00;;;;;;;2.95;72.01;99202.22;7358973;19;20346;-56
2023/01/18 05:56:51;;;;;;;0.00;0.00;;;;;;;2.91;71.78;99204.88;7357683;19;20014;-54
2023/01/18 05:59:16;;;;;;;0.00;0.00;;;;;;;2.95;71.48;99228.00;7360577;19;20031;-55
2023/01/18 06:01:42;;;;;;;0.00;0.00;;;;;;;2.95;71.79;99227.16;7357027;19;20030;-56
2023/01/18 06:04:07;;;;;;;0.10;0.10;;;;;;;2.94;71.60;99231.47;7357433;19;20086;-56
2023/01/18 06:06:33;;;;;;;0.10;0.10;;;;;;;2.92;71.27;99235.78;7357384;19;20014;-56
2023/01/18 06:09:00;;;;;;;0.00;0.00;;;;;;;2.91;71.53;99230.66;7359493;19;20014;-56
2023/01/18 06:11:25;;;;;;;0.00;0.00;;;;;;;2.88;71.27;99241.00;7355911;19;20030;-55
2023/01/18 06:13:51;;;;;;;0.00;0.00;;;;;;;2.89;71.49;99250.44;7359796;19;20042;-54
2023/01/18 06:16:17;;;;;;;0.00;0.00;;;;;;;2.88;71.34;99246.16;7354531;19;20026;-54
2023/01/18 06:18:42;;;;;;;0.08;0.08;;;;;;;2.84;71.36;99251.38;7355606;19;20015;-53
2023/01/18 06:21:09;;;;;;;0.08;0.08;;;;;;;2.83;71.48;99259.97;7356845;19;20086;-56
2023/01/18 06:23:35;;;;;;;0.00;0.00;;;;;;;2.80;71.02;99260.03;7359728;19;20094;-56
2023/01/18 06:26:00;;;;;;;0.00;0.00;;;;;;;2.78;71.13;99261.75;7359737;19;20791;-54
2023/01/18 06:28:26;;;;;;;0.05;0.05;;;;;;;2.75;71.21;99271.28;7352990;19;21094;-51
2023/01/18 06:30:53;;;;;;;0.10;0.10;;;;;;;2.72;71.22;99267.00;7358592;19;20014;-53
2023/01/18 06:33:19;;;;;;;0.00;0.00;;;;;;;2.60;71.15;99262.03;7357281;19;20024;-55
2023/01/18 06:35:44;;;;;;;0.00;0.00;;;;;;;2.69;71.17;99292.84;7358456;19;20057;-55
2023/01/18 06:38:10;;;;;;;0.10;0.10;;;;;;;2.66;71.38;99298.03;7356493;19;20039;-54
2023/01/18 06:40:36;;;;;;;0.10;0.10;;;;;;;2.64;71.41;99310.09;7356254;19;20006;-55
2023/01/18 06:43:01;;;;;;;0.00;0.00;;;;;;;2.62;71.61;99311.81;7356675;19;20006;-53
2023/01/18 06:45:28;;;;;;;0.10;0.10;;;;;;;2.62;71.49;99316.97;7358589;19;20010;-55
2023/01/18 06:47:53;;;;;;;0.10;0.10;;;;;;;2.60;71.38;99318.72;7353538;19;20023;-57
2023/01/18 06:50:19;;;;;;;0.00;0.00;;;;;;;2.60;71.69;99323.88;7359350;19;21274;-54
2023/01/18 06:52:44;;;;;;;0.00;0.00;;;;;;;2.58;71.66;99325.59;7365869;19;20015;-54
2023/01/18 06:55:12;;;;;;;0.00;0.00;;;;;;;2.55;71.54;99329.09;7362234;19;20630;-53
2023/01/18 06:57:37;;;;;;;0.00;0.00;;;;;;;2.58;71.62;99346.22;7359496;19;20463;-55
2023/01/18 07:00:05;;;;;;;0.00;0.00;;;;;;;2.59;71.57;99355.69;7358526;19;22441;-56
2023/01/18 07:02:34;;;;;;;0.00;0.00;;;;;;;2.60;71.85;99357.38;7362435;19;20074;-56
2023/01/18 07:05:00;;;;;;;0.00;0.00;;;;;;;2.58;71.64;99359.09;7363575;19;20758;-52
2023/01/18 07:07:26;;;;;;;0.10;0.10;;;;;;;2.59;71.72;99353.09;7359103;19;20029;-54
2023/01/18 07:09:51;;;;;;;0.00;0.00;;;;;;;2.59;71.65;99363.41;7361450;19;20546;-55
2023/01/18 07:12:17;;;;;;;0.00;0.00;;;;;;;2.48;71.77;99349.78;7362943;19;20017;-55
2023/01/18 07:14:42;;;;;;;0.10;0.10;;;;;;;2.60;71.80;99385.72;7360571;19;20026;-54
2023/01/18 07:17:08;;;;;;;0.05;0.05;;;;;;;2.60;71.75;99390.88;7359796;19;20486;-54
2023/01/18 07:19:34;;;;;;;0.00;0.00;;;;;;;2.60;71.98;99401.19;7364034;19;20019;-56
2023/01/18 07:22:00;;;;;;;0.00;0.00;;;;;;;2.55;71.88;99397.81;7348669;19;20018;-55
2023/01/18 07:24:26;;;;;;;0.10;0.10;;;;;;;2.60;71.68;99407.19;7356703;19;20021;-56
2023/01/18 07:26:52;;;;;;;0.00;0.00;;;;;;;2.63;71.84;99426.91;7341590;19;20015;-57
2023/01/18 07:29:18;;;;;;;0.10;0.10;;;;;;;2.66;71.53;99429.47;7343187;19;20006;-54
2023/01/18 07:31:43;;;;;;;0.00;0.00;;;;;;;2.64;72.03;99423.50;7347075;19;21310;-56
2023/01/18 07:34:10;;;;;;;0.10;0.10;;;;;;;2.66;72.05;99437.19;7355455;19;20022;-54
2023/01/18 07:36:38;;;;;;;0.00;0.00;;;;;;;2.65;71.87;99416.59;7348873;19;22380;-56
2023/01/18 07:39:05;;;;;;;0.00;0.00;;;;;;;2.70;72.03;99426.00;7350251;19;20561;-56
2023/01/18 07:41:31;;;;;;;0.00;0.00;;;;;;;2.69;72.22;99413.97;7351977;19;20019;-54
2023/01/18 07:43:56;;;;;;;0.00;0.00;;;;;;;2.72;71.94;99411.34;7351790;19;20010;-52
2023/01/18 07:46:24;;;;;;;0.00;0.00;;;;;;;2.73;72.05;99415.63;7350629;19;20025;-54
2023/01/18 07:48:51;;;;;;;0.00;0.00;;;;;;;2.71;72.34;99412.22;7346272;19;20099;-56
2023/01/18 07:51:18;;;;;;;0.00;0.00;;;;;;;2.78;71.91;99423.31;7349459;19;20086;-55
2023/01/18 07:53:44;;;;;;;0.00;0.00;;;;;;;2.78;72.23;99426.72;7346515;19;20027;-54
2023/01/18 07:56:15;;;;;;;0.10;0.10;;;;;;;2.81;72.28;99426.72;7348317;19;20710;-55
2023/01/18 07:58:41;;;;;;;0.10;0.10;;;;;;;2.72;72.27;99411.34;7351825;19;20747;-56
2023/01/18 08:01:11;;;;;;;0.00;0.00;;;;;;;2.83;71.76;99427.53;7351551;19;20010;-54
2023/01/18 08:03:37;;;;;;;0.10;0.10;;;;;;;2.84;72.23;99428.41;7352507;19;20021;-55
2023/01/18 08:06:05;;;;;;;0.00;0.00;;;;;;;2.85;72.00;99427.53;7354630;19;20462;-55
2023/01/18 08:08:31;;;;;;;0.00;0.00;;;;;;;2.85;71.93;99423.22;7353852;19;20109;-54
2023/01/18 08:10:59;;;;;;;0.10;0.10;;;;;;;2.86;72.07;99434.41;7352571;19;20038;-56
2023/01/18 08:13:26;;;;;;;0.10;0.10;;;;;;;2.85;71.77;99437.84;7356736;19;20542;-56
2023/01/18 08:15:52;;;;;;;0.10;0.10;;;;;;;2.85;71.86;99437.84;7355263;19;20066;-54
2023/01/18 08:18:17;;;;;;;0.10;0.10;;;;;;;2.83;72.21;99440.44;7354708;19;20023;-55
2023/01/18 08:20:47;;;;;;;0.10;0.10;;;;;;;2.83;71.80;99443.00;7353194;19;20026;-54
2023/01/18 08:23:14;;;;;;;0.00;0.00;;;;;;;2.81;72.17;99446.47;7344577;19;20010;-50
2023/01/18 08:25:40;;;;;;;0.10;0.10;;;;;;;2.80;71.76;99440.47;7352533;19;20022;-53
2023/01/18 08:28:06;;;;;;;0.00;0.00;;;;;;;2.67;71.95;99418.28;7350780;19;20011;-53
2023/01/18 08:30:35;;;;;;;0.00;0.00;;;;;;;2.81;72.17;99444.75;7340805;19;20025;-56
2023/01/18 08:33:01;;;;;;;0.08;0.08;;;;;;;2.70;72.11;99427.72;7352744;19;20006;-56
2023/01/18 08:35:30;;;;;;;0.10;0.10;;;;;;;2.84;72.15;99451.63;7355157;19;20003;-56
2023/01/18 08:37:58;;;;;;;0.00;0.00;;;;;;;2.84;72.31;99457.63;7353623;19;20006;-54
2023/01/18 08:40:24;;;;;;;0.10;0.10;;;;;;;2.84;71.95;99467.94;7349321;19;20010;-56
2023/01/18 08:42:54;;;;;;;0.00;0.00;;;;;;;2.84;72.34;99451.63;7353576;19;20014;-56
2023/01/18 08:45:19;;;;;;;0.00;0.00;;;;;;;2.88;71.93;99457.56;7351911;19;20011;-56
2023/01/18 08:47:45;;;;;;;0.00;0.00;;;;;;;2.89;72.30;99460.16;7353338;19;20044;-56
2023/01/18 08:50:10;;;;;;;0.00;0.00;;;;;;;2.92;72.16;99456.69;7353151;19;20040;-56
2023/01/18 08:52:36;;;;;;;0.00;0.00;;;;;;;2.95;72.28;99459.22;7353062;19;20052;-56
2023/01/18 08:55:03;;;;;;;0.10;0.10;;;;;;;2.96;72.36;99455.78;7353394;19;20026;-55
2023/01/18 08:57:29;;;;;;;0.10;0.10;;;;;;;3.00;72.01;99458.28;7351352;19;20030;-54
2023/01/18 08:59:55;;;;;;;0.10;0.10;;;;;;;3.02;72.28;99461.69;7348538;19;20014;-54
2023/01/18 09:02:22;;;;;;;0.00;0.00;;;;;;;3.02;72.67;99459.13;7353360;19;20011;-54
2023/01/18 09:04:47;;;;;;;0.10;0.10;;;;;;;3.08;72.26;99466.78;7351961;19;20011;-56
2023/01/18 09:07:16;;;;;;;0.10;0.10;;;;;;;3.16;72.48;99479.59;7352810;19;20014;-56
2023/01/18 09:09:43;;;;;;;0.10;0.10;;;;;;;3.18;72.29;99467.53;7350662;19;20482;-54
2023/01/18 09:12:09;;;;;;;0.00;0.00;;;;;;;3.21;72.58;99467.50;7353483;19;20043;-54
2023/01/18 09:14:35;;;;;;;0.10;0.10;;;;;;;3.25;72.13;99476.91;7349565;19;20094;-55
2023/01/18 09:17:00;;;;;;;0.00;0.00;;;;;;;3.30;72.12;99482.88;7353354;19;20034;-53
2023/01/18 09:19:26;;;;;;;0.00;0.00;;;;;;;3.35;72.52;99496.56;7349648;19;20014;-55
2023/01/18 09:21:51;;;;;;;0.00;0.00;;;;;;;3.39;72.42;99500.78;7353082;19;20018;-55
2023/01/18 09:24:16;;;;;;;0.00;0.00;;;;;;;3.45;72.17;99514.47;7351381;19;20017;-54
2023/01/18 09:26:42;;;;;;;0.00;0.00;;;;;;;3.51;72.20;99522.16;7348201;19;20475;-51
2023/01/18 09:29:08;;;;;;;0.00;0.00;;;;;;;3.54;72.22;99515.22;7347493;19;20575;-55
2023/01/18 09:31:33;;;;;;;0.00;0.00;;;;;;;3.60;72.21;99522.06;7351312;19;20844;-55
2023/01/18 09:33:59;;;;;;;0.00;0.00;;;;;;;3.66;72.50;99532.28;7353225;19;20441;-54
2023/01/18 09:36:27;;;;;;;0.00;0.00;;;;;;;3.73;72.14;99533.91;7351188;19;20027;-54
2023/01/18 09:38:53;;;;;;;0.00;0.00;;;;;;;3.76;72.55;99533.88;7353606;19;20964;-54
2023/01/18 09:41:37;;;;;;;0.00;0.00;;;;;;;3.84;72.30;99550.09;7353626;19;20035;-54
2023/01/18 09:44:20;;;;;;;0.00;0.00;;;;;;;3.89;72.05;99553.47;7353187;19;20019;-57
2023/01/18 09:46:53;;;;;;;0.00;0.00;;;;;;;3.94;71.80;99568.03;7351662;19;20046;-56
2023/01/18 09:49:27;;;;;;;0.00;0.00;;;;;;;3.98;71.92;99565.41;7354748;19;20632;-55
2023/01/18 09:52:12;;;;;;;0.00;0.00;;;;;;;4.02;72.12;99567.06;7354099;19;20522;-53
2023/01/18 09:55:05;;;;;;;0.00;0.00;;;;;;;4.07;71.75;99570.44;7351437;19;20017;-55
2023/01/18 09:58:00;;;;;;;0.10;0.10;;;;;;;4.15;72.18;99570.31;7251308;19;2004440;-56
2023/01/18 10:00:29;;;;;;;0.10;0.10;;;;;;;4.23;71.82;99575.38;7251485;19;2004210;-54
2023/01/18 10:03:13;;;;;;;0.05;0.05;;;;;;;4.33;71.99;99570.06;7351948;19;20015;-55
2023/01/18 10:05:46;;;;;;;0.00;0.00;;;;;;;4.28;71.96;99556.34;7351407;19;20806;-57
2023/01/18 10:08:19;;;;;;;0.00;0.00;;;;;;;4.45;71.79;99571.56;7350139;19;20010;-56
2023/01/18 10:11:07;;;;;;;0.00;0.00;;;;;;;4.46;71.25;99581.06;7350063;19;20962;-55
2023/01/18 10:13:56;;;;;;;0.10;0.10;;;;;;;4.48;71.58;99581.03;7353461;19;20450;-52
2023/01/18 10:16:21;;;;;;;0.00;0.00;;;;;;;4.49;71.39;99572.38;7349770;19;20035;-54
2023/01/18 10:18:52;;;;;;;0.10;0.10;;;;;;;4.55;71.51;99585.22;7351381;19;20030;-55
2023/01/18 10:21:25;;;;;;;0.00;0.00;;;;;;;4.63;71.66;99585.94;7352115;19;20014;-56
2023/01/18 10:24:23;;;;;;;0.03;0.03;;;;;;;4.68;71.41;99589.31;7350094;19;20482;-56
2023/01/18 10:26:52;;;;;;;0.00;0.00;;;;;;;4.71;71.05;99597.00;7253813;19;2004245;-53
2023/01/18 10:29:29;;;;;;;0.00;0.00;;;;;;;4.77;71.15;99598.66;7357733;19;20022;-57
2023/01/18 10:32:01;;;;;;;0.00;0.00;;;;;;;4.84;71.46;99600.25;7357574;19;20448;-56
2023/01/18 10:34:32;;;;;;;0.05;0.05;;;;;;;4.99;71.82;99612.06;7357169;19;20018;-55
2023/01/18 10:37:29;;;;;;;0.00;0.00;;;;;;;5.14;71.61;99614.38;7355613;19;20014;-55
2023/01/18 10:40:02;;;;;;;;;;;;;;;5.29;72.15;99619.28;7254987;19;2004385;-56
2023/01/18 10:42:38;;;;;;;0.10;0.10;;;;;;;5.39;71.42;99614.78;7359969;19;19915;-54
2023/01/18 10:45:20;;;;;;;0.00;0.00;;;;;;;5.49;71.50;99615.47;7355462;19;20010;-56
2023/01/18 10:47:50;;;;;;;0.00;0.00;;;;;;;5.47;70.65;99613.78;7356681;19;20021;-55
2023/01/18 10:50:23;;;;;;;0.00;0.00;;;;;;;5.52;70.95;99620.56;7357503;19;20015;-54
2023/01/18 10:52:49;;;;;;;0.00;0.00;;;;;;;5.54;70.92;99639.53;7356503;19;20027;-52
2023/01/18 10:55:17;;;;;;;0.00;0.00;;;;;;;5.38;70.85;99597.56;7356781;19;20169;-55
2023/01/18 10:57:47;;;;;;;0.00;0.00;;;;;;;5.61;70.86;99636.78;7356752;19;20911;-57
2023/01/18 11:00:25;;;;;;;0.00;0.00;;;;;;;5.66;70.95;99647.06;7357388;19;20026;-57
2023/01/18 11:02:53;;;;;;;0.00;0.00;;;;;;;5.66;70.58;99644.47;7354488;19;20030;-55
2023/01/18 11:05:25;;;;;;;0.00;0.00;;;;;;;5.68;70.02;99650.50;7353344;19;20113;-57
2023/01/18 11:08:18;;;;;;;0.00;0.00;;;;;;;5.67;70.32;99651.34;7353598;19;20018;-55
2023/01/18 11:10:44;;;;;;;0.00;0.00;;;;;;;5.65;70.21;99647.94;7252547;19;2004571;-56
2023/01/18 11:13:24;;;;;;;0.00;0.00;;;;;;;5.65;69.87;99642.75;7355181;19;20006;-54
2023/01/18 11:16:16;;;;;;;0.00;0.00;;;;;;;5.61;69.84;99647.16;7355104;19;20007;-55
2023/01/18 11:18:55;;;;;;;0.10;0.10;;;;;;;5.57;70.14;99655.00;7252009;19;2004602;-55
2023/01/18 11:21:22;;;;;;;0.00;0.00;;;;;;;5.53;70.10;99658.56;7352568;19;20009;-57
2023/01/18 11:23:48;;;;;;;0.10;0.10;;;;;;;5.51;69.77;99649.94;7353214;19;20714;-55
2023/01/18 11:26:17;;;;;;;0.00;0.00;;;;;;;5.51;70.26;99657.72;7353980;19;20007;-55
2023/01/18 11:28:43;;;;;;;0.10;0.10;;;;;;;5.49;70.00;99659.50;7353760;19;20007;-53
2023/01/18 11:31:11;;;;;;;0.00;0.00;;;;;;;5.47;70.02;99659.50;7354056;19;20022;-54
2023/01/18 11:33:47;;;;;;;0.05;0.05;;;;;;;5.51;70.16;99662.88;7351898;19;20007;-57
2023/01/18 11:36:13;;;;;;;0.00;0.00;;;;;;;5.48;70.13;99661.22;7353238;19;20019;-56
2023/01/18 11:38:40;;;;;;;0.00;0.00;;;;;;;5.50;70.17;99671.53;7354407;19;21461;-53
2023/01/18 11:41:13;;;;;;;0.00;0.00;;;;;;;5.54;70.11;99675.78;7353940;19;20052;-56
2023/01/18 11:43:47;;;;;;;0.10;0.10;;;;;;;5.52;70.02;99685.31;7356079;19;20031;-53
2023/01/18 11:46:21;;;;;;;0.10;0.10;;;;;;;5.55;70.32;99682.66;7353933;19;20010;-54
2023/01/18 11:48:52;;;;;;;0.00;0.00;;;;;;;5.55;69.89;99687.84;7351270;19;20023;-55
2023/01/18 11:51:32;;;;;;;0.00;0.00;;;;;;;5.57;69.79;99691.25;7352903;19;20010;-56
2023/01/18 11:54:17;;;;;;;0.00;0.00;;;;;;;5.56;69.59;99697.31;7351241;19;20003;-55
2023/01/18 11:56:54;;;;;;;0.03;0.03;;;;;;;5.54;69.97;99692.19;7345396;19;20646;-56
2023/01/18 11:59:49;;;;;;;0.10;0.10;;;;;;;5.58;70.04;99693.00;7352581;19;20030;-54
2023/01/18 12:02:27;;;;;;;0.10;0.10;;;;;;;5.59;69.56;99705.03;7250867;19;2004632;-56
2023/01/18 12:05:13;;;;;;;0.10;0.10;;;;;;;5.58;69.61;99714.56;7350431;19;20777;-56
2023/01/18 12:08:00;;;;;;;0.00;0.00;;;;;;;5.58;69.68;99716.28;7354200;19;20022;-56
2023/01/18 12:10:47;;;;;;;0.10;0.10;;;;;;;5.57;70.04;99723.19;7353285;19;21408;-52
2023/01/18 12:13:40;;;;;;;0.00;0.00;;;;;;;5.57;69.88;99727.50;7343404;19;20434;-57
2023/01/18 12:16:13;;;;;;;0.00;0.00;;;;;;;5.55;69.76;99734.47;7252585;19;2004426;-55
2023/01/18 12:18:57;;;;;;;0.00;0.00;;;;;;;5.51;69.83;99736.25;7354688;19;20997;-56
2023/01/18 12:21:54;;;;;;;0.00;0.00;;;;;;;5.53;69.84;99742.28;7354266;19;20366;-54